Longtown, North Carolina
Current Conditions -  °F | °C
As of 3:15 AM on Friday 24 Oct 2014 (Local Time) from KMWK Reporting Station
Clear Clear  
Wind Chill: 48°   Ceiling: Unl
Heat Index: 48°   Visibility: 10mi
Dew Point: 42°   Wind: 0mph
Humidity: 79%   Direction: NA
Pressure: 30.07"   Gusts: NA
Location:  36.2374°N, 80.6343°W
Report Text: KMWK 240715Z AUTO 00000KT 10SM CLR 09/05 A3007 RMK AO2 T00870053
Loading
Personal Weather Stations






























Interactive Weather Map
Tropical Storm Tracking
New forecast layout! Learn more

10-Day Weather Forecast

Advertisements
Track Severe Weather on mobile